LSZS/SMV METAR and TAF weather

Enter ICAO airport designator
Station Type Date Time Source
LSZS METAR 2021/02/25 15:50 UTC NOAA

LSZS 251550Z 21005KT 170V240 CAVOK 06/M06 Q1032 RMK S TL170


Station Type Date Time Source
LSZS Decoded METAR 2021/02/25 15:50 UTC NOAA

Station name not available
Feb 25, 2021 - 10:50 AM EST / 2021.02.25 1550 UTC
Wind: from the SSW (210 degrees) at 6 MPH (5 KT) (direction variable):0
Visibility: greater than 7 mile(s):0
Temperature: 42 F (6 C)
Dew Point: 21 F (-6 C)
Relative Humidity: 41%
Pressure (altimeter): 30.47 in. Hg (1032 hPa)
ob: LSZS 251550Z 21005KT 170V240 CAVOK 06/M06 Q1032 RMK S TL170
cycle: 16

Station Type Date Time Source
LSZS TAF 2014/12/22 20:03 UTC NOAA

TAF
AMD LSZS 222054Z 2220/2224 CNL

Example: see airport list